createdAt,value
2022-12-08T00:00:57.328Z,16.95
2022-12-08T00:01:59.264Z,16.79
2022-12-08T00:03:01.555Z,15.60
2022-12-08T00:04:03.418Z,13.55
2022-12-08T00:05:05.708Z,15.21
2022-12-08T00:06:07.757Z,15.93
2022-12-08T00:07:09.539Z,17.31
2022-12-08T00:08:11.380Z,15.47
2022-12-08T00:09:13.222Z,20.21
2022-12-08T00:10:47.269Z,14.27
2022-12-08T00:11:18.839Z,15.71
2022-12-08T00:12:20.636Z,15.61
2022-12-08T00:13:22.452Z,15.83
2022-12-08T00:14:24.294Z,18.77
2022-12-08T00:15:26.090Z,17.70
2022-12-08T00:16:28.037Z,15.70
2022-12-08T00:17:29.817Z,14.93
2022-12-08T00:18:31.601Z,17.25
2022-12-08T00:19:33.464Z,15.04
2022-12-08T00:20:35.454Z,20.56
2022-12-08T00:21:37.243Z,15.82
2022-12-08T00:22:38.964Z,14.27
2022-12-08T00:23:40.786Z,16.41
2022-12-08T00:24:42.725Z,16.67
2022-12-08T00:25:44.522Z,13.69
2022-12-08T00:26:46.434Z,14.70
2022-12-08T00:27:48.224Z,15.41
2022-12-08T00:28:50.040Z,16.99
2022-12-08T00:29:51.879Z,17.11
2022-12-08T00:30:53.784Z,16.57
2022-12-08T00:31:55.731Z,15.97
2022-12-08T00:32:57.565Z,15.78
2022-12-08T00:33:59.374Z,17.15
2022-12-08T00:35:01.428Z,16.99
2022-12-08T00:36:03.537Z,15.07
2022-12-08T00:37:05.343Z,16.13
2022-12-08T00:38:07.155Z,15.83
2022-12-08T00:39:08.969Z,14.37
2022-12-08T00:40:12.007Z,17.81
2022-12-08T00:41:13.791Z,15.83
2022-12-08T00:42:15.585Z,16.33
2022-12-08T00:43:17.306Z,15.72
2022-12-08T00:44:19.111Z,17.06
2022-12-08T00:45:21.316Z,14.59
2022-12-08T00:46:23.305Z,15.80
2022-12-08T00:47:25.318Z,16.45
2022-12-08T00:48:27.115Z,18.59
2022-12-08T00:49:28.930Z,15.07
2022-12-08T00:50:30.803Z,18.26
2022-12-08T00:51:32.622Z,16.82
2022-12-08T00:52:34.426Z,16.81
2022-12-08T00:53:36.247Z,15.49
2022-12-08T00:54:38.067Z,17.09
2022-12-08T00:55:40.105Z,16.17
2022-12-08T00:56:42.101Z,13.34
2022-12-08T00:57:43.921Z,15.60
2022-12-08T00:58:45.760Z,16.39
2022-12-08T00:59:47.559Z,16.43
2022-12-08T01:00:49.719Z,17.00
2022-12-08T01:01:51.566Z,13.26
2022-12-08T01:02:53.408Z,14.93
2022-12-08T01:03:55.184Z,13.87
2022-12-08T01:04:57.008Z,16.33
2022-12-08T01:05:58.850Z,15.65
2022-12-08T01:07:00.749Z,14.71
2022-12-08T01:08:02.628Z,15.60
2022-12-08T01:09:04.443Z,16.27
2022-12-08T01:10:06.965Z,16.05
2022-12-08T01:11:09.139Z,14.69
2022-12-08T01:12:10.921Z,14.03
2022-12-08T01:13:12.746Z,16.67
2022-12-08T01:14:14.554Z,14.15
2022-12-08T01:15:16.356Z,14.71
2022-12-08T01:16:18.344Z,14.90
2022-12-08T01:17:20.199Z,15.71
2022-12-08T01:18:22.002Z,15.13
2022-12-08T01:19:23.843Z,15.06
2022-12-08T01:20:25.728Z,14.88
2022-12-08T01:21:27.600Z,19.69
2022-12-08T01:22:29.413Z,23.27
2022-12-08T01:23:31.217Z,23.06
2022-12-08T01:24:33.018Z,19.70
2022-12-08T01:25:34.827Z,23.28
2022-12-08T01:26:36.827Z,21.71
2022-12-08T01:27:38.645Z,18.67
2022-12-08T01:28:40.442Z,16.91
2022-12-08T01:29:42.239Z,16.10
2022-12-08T01:30:44.378Z,17.59
2022-12-08T01:31:46.278Z,14.97
2022-12-08T01:32:48.087Z,14.18
2022-12-08T01:33:49.916Z,13.97
2022-12-08T01:34:51.721Z,14.71
2022-12-08T01:35:53.716Z,14.56
2022-12-08T01:36:55.875Z,14.89
2022-12-08T01:37:57.645Z,13.21
2022-12-08T01:38:59.466Z,15.71
2022-12-08T01:40:01.757Z,16.74
2022-12-08T01:41:03.751Z,13.63
2022-12-08T01:42:05.643Z,15.19
2022-12-08T01:43:07.444Z,13.72
2022-12-08T01:44:09.232Z,15.07
2022-12-08T01:45:11.035Z,14.53
2022-12-08T01:46:12.984Z,15.44
2022-12-08T01:47:14.843Z,18.09
2022-12-08T01:48:16.672Z,14.66
2022-12-08T01:49:18.465Z,16.20
2022-12-08T01:50:20.377Z,17.04
2022-12-08T01:51:22.189Z,17.81
2022-12-08T01:52:24.037Z,15.78
2022-12-08T01:53:25.842Z,19.38
2022-12-08T01:54:27.644Z,14.78
2022-12-08T01:55:29.465Z,17.26
2022-12-08T01:56:31.579Z,15.46
2022-12-08T01:57:33.561Z,14.93
2022-12-08T01:58:35.370Z,14.75
2022-12-08T01:59:37.190Z,18.82
2022-12-08T02:00:39.088Z,18.80
2022-12-08T02:01:41.073Z,19.11
2022-12-08T02:02:43.034Z,19.16
2022-12-08T02:03:44.970Z,17.29
2022-12-08T02:04:46.789Z,19.39
2022-12-08T02:05:48.620Z,16.45
2022-12-08T02:06:50.797Z,15.41
2022-12-08T02:07:52.673Z,14.98
2022-12-08T02:08:54.470Z,14.71
2022-12-08T02:09:56.272Z,13.11
2022-12-08T02:10:58.183Z,14.51
2022-12-08T02:12:00.005Z,16.03
2022-12-08T02:13:01.888Z,16.83
2022-12-08T02:14:03.687Z,14.36
2022-12-08T02:15:05.782Z,15.36
2022-12-08T02:16:07.992Z,15.58
2022-12-08T02:17:09.813Z,17.15
2022-12-08T02:18:11.694Z,17.31
2022-12-08T02:20:17.126Z,17.45
2022-12-08T02:21:18.937Z,17.12
2022-12-08T02:22:20.739Z,14.99
2022-12-08T02:23:22.600Z,15.30
2022-12-08T02:24:24.414Z,17.34
2022-12-08T02:25:26.216Z,14.47
2022-12-08T02:26:28.009Z,17.21
2022-12-08T02:27:29.818Z,17.82
2022-12-08T02:28:31.701Z,13.99
2022-12-08T02:29:33.516Z,15.94
2022-12-08T02:30:35.582Z,15.77
2022-12-08T02:31:37.459Z,15.93
2022-12-08T02:32:39.256Z,14.93
2022-12-08T02:33:41.097Z,16.74
2022-12-08T02:34:42.911Z,16.19
2022-12-08T02:35:44.715Z,16.73
2022-12-08T02:36:46.817Z,14.33
2022-12-08T02:37:48.627Z,14.03
2022-12-08T02:38:50.488Z,15.20
2022-12-08T02:39:52.286Z,14.25
2022-12-08T02:40:54.191Z,15.71
2022-12-08T02:41:55.990Z,17.59
2022-12-08T02:42:57.789Z,15.50
2022-12-08T02:43:59.684Z,14.41
2022-12-08T02:45:01.488Z,15.80
2022-12-08T02:46:03.427Z,15.40
2022-12-08T02:47:05.287Z,17.25
2022-12-08T02:48:07.105Z,15.31
2022-12-08T02:49:08.978Z,17.20
2022-12-08T02:50:10.981Z,16.17
2022-12-08T02:51:12.791Z,16.55
2022-12-08T02:52:14.595Z,15.24
2022-12-08T02:53:16.391Z,14.46
2022-12-08T02:54:18.235Z,17.40
2022-12-08T02:55:20.058Z,15.70
2022-12-08T02:56:22.083Z,13.63
2022-12-08T02:57:23.882Z,15.66
2022-12-08T02:58:25.692Z,16.19
2022-12-08T02:59:27.617Z,16.47
2022-12-08T03:00:29.525Z,13.80
2022-12-08T03:01:31.497Z,16.82
2022-12-08T03:02:33.383Z,14.51
2022-12-08T03:03:35.257Z,18.21
2022-12-08T03:04:37.103Z,16.55
2022-12-08T03:05:38.902Z,12.41
2022-12-08T03:06:40.810Z,16.07
2022-12-08T03:07:42.652Z,17.47
2022-12-08T03:08:44.425Z,15.18
2022-12-08T03:09:46.266Z,15.38
2022-12-08T03:10:48.161Z,15.23
2022-12-08T03:11:49.984Z,14.69
2022-12-08T03:12:51.795Z,16.27
2022-12-08T03:13:53.588Z,14.82
2022-12-08T03:14:55.499Z,15.25
2022-12-08T03:15:57.386Z,14.41
2022-12-08T03:16:59.330Z,16.22
2022-12-08T03:18:01.134Z,16.98
2022-12-08T03:19:02.939Z,15.48
2022-12-08T03:20:05.062Z,15.02
2022-12-08T03:21:07.013Z,15.99
2022-12-08T03:22:08.962Z,14.92
2022-12-08T03:23:10.764Z,17.58
2022-12-08T03:24:12.573Z,16.89
2022-12-08T03:25:14.409Z,17.01
2022-12-08T03:26:16.301Z,15.54
2022-12-08T03:27:18.110Z,16.25
2022-12-08T03:28:19.922Z,16.01
2022-12-08T03:29:21.718Z,15.96
2022-12-08T03:30:23.743Z,18.14
2022-12-08T03:31:25.613Z,16.01
2022-12-08T03:32:27.471Z,15.51
2022-12-08T03:33:29.273Z,14.99
2022-12-08T03:34:31.078Z,16.45
2022-12-08T03:35:32.940Z,16.94
2022-12-08T03:36:35.452Z,16.57
2022-12-08T03:37:37.268Z,16.01
2022-12-08T03:38:39.074Z,16.94
2022-12-08T03:39:40.877Z,18.57
2022-12-08T03:40:42.835Z,15.75
2022-12-08T03:41:44.635Z,19.70
2022-12-08T03:42:46.433Z,20.25
2022-12-08T03:43:48.236Z,16.63
2022-12-08T03:44:50.036Z,16.29
2022-12-08T03:45:51.929Z,16.57
2022-12-08T03:46:53.857Z,20.03
2022-12-08T03:47:55.658Z,18.40
2022-12-08T03:48:57.483Z,14.71
2022-12-08T03:49:59.337Z,22.29
2022-12-08T03:51:01.286Z,20.84
2022-12-08T03:52:03.084Z,17.90
2022-12-08T03:53:04.885Z,20.81
2022-12-08T03:54:06.699Z,18.83
2022-12-08T03:55:08.506Z,18.89
2022-12-08T03:56:11.066Z,17.43
2022-12-08T03:57:12.966Z,20.06
2022-12-08T03:58:14.770Z,20.58
2022-12-08T03:59:16.585Z,20.12
2022-12-08T04:00:18.402Z,21.64
2022-12-08T04:01:20.828Z,22.27
2022-12-08T04:02:22.790Z,20.50
2022-12-08T04:03:24.669Z,19.03
2022-12-08T04:04:26.557Z,22.30
2022-12-08T04:05:28.382Z,20.01
2022-12-08T04:06:30.327Z,21.44
2022-12-08T04:07:32.130Z,26.98
2022-12-08T04:08:33.924Z,22.03
2022-12-08T04:09:35.848Z,20.51
2022-12-08T04:10:37.753Z,19.83
2022-12-08T04:11:39.595Z,20.09
2022-12-08T04:12:41.388Z,21.26
2022-12-08T04:13:43.205Z,22.11
2022-12-08T04:14:45.167Z,20.45
2022-12-08T04:15:47.008Z,18.94
2022-12-08T04:16:49.350Z,21.66
2022-12-08T04:17:51.150Z,21.23
2022-12-08T04:18:53.134Z,21.61
2022-12-08T04:19:54.952Z,19.98
2022-12-08T04:20:56.968Z,20.18
2022-12-08T04:21:58.876Z,21.77
2022-12-08T04:23:00.949Z,23.45
2022-12-08T04:24:02.997Z,25.56
2022-12-08T04:25:04.806Z,23.98
2022-12-08T04:26:07.226Z,24.54
2022-12-08T04:27:09.088Z,20.76
2022-12-08T04:28:10.906Z,19.42
2022-12-08T04:29:12.718Z,19.70
2022-12-08T04:30:15.228Z,20.26
2022-12-08T04:31:17.087Z,20.76
2022-12-08T04:32:19.038Z,21.20
2022-12-08T04:33:20.840Z,20.63
2022-12-08T04:34:22.642Z,19.47
2022-12-08T04:35:24.455Z,20.13
2022-12-08T04:36:26.605Z,25.70
2022-12-08T04:37:28.466Z,22.06
2022-12-08T04:38:30.287Z,23.79
2022-12-08T04:39:32.164Z,22.36
2022-12-08T04:40:34.189Z,23.67
2022-12-08T04:41:35.983Z,23.75
2022-12-08T04:42:37.732Z,23.72
2022-12-08T04:43:39.522Z,22.07
2022-12-08T04:44:41.345Z,23.61
2022-12-08T04:45:43.151Z,20.24
2022-12-08T04:46:45.179Z,24.07
2022-12-08T04:47:47.031Z,23.98
2022-12-08T04:48:48.854Z,25.11
2022-12-08T04:49:50.642Z,25.26
2022-12-08T04:50:52.546Z,25.83
2022-12-08T04:51:54.345Z,27.37
2022-12-08T04:52:56.182Z,25.84
2022-12-08T04:53:57.979Z,25.18
2022-12-08T04:54:59.778Z,24.24
2022-12-08T04:56:01.586Z,25.35
2022-12-08T04:57:03.411Z,25.15
2022-12-08T04:58:05.270Z,25.69
2022-12-08T04:59:07.060Z,27.11
2022-12-08T05:00:09.675Z,28.84
2022-12-08T05:01:11.532Z,23.65
2022-12-08T05:02:13.634Z,24.03
2022-12-08T05:03:15.624Z,25.99
2022-12-08T05:04:17.433Z,30.87
2022-12-08T05:05:19.249Z,32.99
2022-12-08T05:06:21.159Z,34.09
2022-12-08T05:07:22.940Z,30.27
2022-12-08T05:08:24.826Z,25.37
2022-12-08T05:09:26.702Z,22.54
2022-12-08T05:10:28.846Z,26.11
2022-12-08T05:11:30.621Z,26.61
2022-12-08T05:12:32.445Z,26.24
2022-12-08T05:13:34.316Z,27.99
2022-12-08T05:14:36.136Z,26.97
2022-12-08T05:15:37.938Z,27.11
2022-12-08T05:16:39.995Z,31.86
2022-12-08T05:17:41.864Z,27.58
2022-12-08T05:18:43.762Z,28.39
2022-12-08T05:19:45.579Z,29.19
2022-12-08T05:20:47.681Z,29.55
2022-12-08T05:21:49.465Z,24.57
2022-12-08T05:22:51.254Z,27.19
2022-12-08T05:23:53.094Z,33.41
2022-12-08T05:24:54.924Z,27.30
2022-12-08T05:25:56.755Z,28.78
2022-12-08T05:26:58.968Z,26.31
2022-12-08T05:28:32.326Z,28.78
2022-12-08T05:29:04.464Z,28.39
2022-12-08T05:30:06.925Z,28.87
2022-12-08T05:31:08.969Z,30.04
2022-12-08T05:32:10.738Z,32.61
2022-12-08T05:33:12.538Z,29.21
2022-12-08T05:34:14.412Z,29.43
2022-12-08T05:35:16.479Z,29.67
2022-12-08T05:36:18.377Z,30.48
2022-12-08T05:37:20.219Z,30.20
2022-12-08T05:38:22.050Z,31.01
2022-12-08T05:39:23.875Z,29.49
2022-12-08T05:40:25.802Z,27.35
2022-12-08T05:41:27.626Z,28.46
2022-12-08T05:42:29.413Z,31.55
2022-12-08T05:43:31.227Z,28.37
2022-12-08T05:44:33.076Z,31.37
2022-12-08T05:45:34.943Z,29.41
2022-12-08T05:46:37.000Z,31.37
2022-12-08T05:47:38.810Z,25.66
2022-12-08T05:48:40.622Z,30.89
2022-12-08T05:49:42.515Z,31.87
2022-12-08T05:50:44.434Z,33.22
2022-12-08T05:51:46.224Z,34.31
2022-12-08T05:52:48.033Z,32.09
2022-12-08T05:53:49.837Z,31.33
2022-12-08T05:54:51.701Z,33.57
2022-12-08T05:55:53.535Z,30.93
2022-12-08T05:56:55.512Z,30.78
2022-12-08T05:57:57.333Z,33.90
2022-12-08T05:58:59.168Z,32.65
2022-12-08T06:00:01.130Z,30.06
2022-12-08T06:01:03.030Z,30.63
2022-12-08T06:02:04.962Z,35.48
2022-12-08T06:03:06.934Z,36.34
2022-12-08T06:04:08.739Z,33.05
2022-12-08T06:05:10.658Z,35.89
2022-12-08T06:06:12.750Z,34.02
2022-12-08T06:07:16.162Z,38.29
2022-12-08T06:08:18.243Z,35.53
2022-12-08T06:09:20.074Z,31.81
2022-12-08T06:10:22.043Z,32.38
2022-12-08T06:11:23.862Z,30.75
2022-12-08T06:12:25.659Z,33.27
2022-12-08T06:13:27.472Z,33.51
2022-12-08T06:14:29.293Z,28.97
2022-12-08T06:15:31.260Z,36.73
2022-12-08T06:16:33.212Z,34.39
2022-12-08T06:17:35.059Z,29.49
2022-12-08T06:18:36.886Z,30.14
2022-12-08T06:19:38.700Z,34.19
2022-12-08T06:20:40.761Z,31.51
2022-12-08T06:21:42.580Z,33.93
2022-12-08T06:22:44.399Z,31.89
2022-12-08T06:23:46.185Z,29.89
2022-12-08T06:24:48.004Z,30.33
2022-12-08T06:25:49.875Z,29.75
2022-12-08T06:26:51.782Z,32.39
2022-12-08T06:27:53.587Z,29.75
2022-12-08T06:28:55.404Z,31.00
2022-12-08T06:29:57.212Z,30.83
2022-12-08T06:30:59.255Z,27.37
2022-12-08T06:32:01.145Z,30.35
2022-12-08T06:33:02.964Z,36.61
2022-12-08T06:34:04.778Z,31.36
2022-12-08T06:35:06.586Z,31.59
2022-12-08T06:36:09.411Z,26.53
2022-12-08T06:37:11.212Z,27.41
2022-12-08T06:38:13.043Z,31.18
2022-12-08T06:39:14.864Z,26.40
2022-12-08T06:40:16.781Z,29.13
2022-12-08T06:41:18.624Z,29.85
2022-12-08T06:42:20.469Z,35.21
2022-12-08T06:43:22.262Z,33.54
2022-12-08T06:44:24.059Z,28.84
2022-12-08T06:45:25.874Z,30.80
2022-12-08T06:46:28.278Z,33.48
2022-12-08T06:47:30.049Z,33.13
2022-12-08T06:48:31.844Z,33.21
2022-12-08T06:49:33.656Z,28.26
2022-12-08T06:50:35.603Z,28.19
2022-12-08T06:51:37.584Z,30.25
2022-12-08T06:52:49.230Z,28.35
2022-12-08T06:53:43.045Z,27.00
2022-12-08T06:54:44.838Z,28.42
2022-12-08T06:56:02.058Z,27.44
2022-12-08T06:56:50.421Z,31.07
2022-12-08T06:57:54.061Z,28.94
2022-12-08T06:58:55.842Z,25.87
2022-12-08T06:59:57.652Z,28.03
2022-12-08T07:00:59.921Z,30.04
2022-12-08T07:02:01.881Z,27.05
2022-12-08T07:03:03.768Z,27.03
2022-12-08T07:04:05.584Z,29.10
2022-12-08T07:05:07.389Z,29.71
2022-12-08T07:06:09.308Z,30.50
2022-12-08T07:07:11.206Z,28.56
2022-12-08T07:08:13.045Z,29.73
2022-12-08T07:09:14.969Z,27.43
2022-12-08T07:10:17.083Z,27.41
2022-12-08T07:11:21.948Z,25.56
2022-12-08T07:12:22.567Z,25.31
2022-12-08T07:13:24.393Z,25.98
2022-12-08T07:14:26.198Z,26.79
2022-12-08T07:15:27.999Z,26.28
2022-12-08T07:16:29.931Z,26.60
2022-12-08T07:17:31.849Z,27.77
2022-12-08T07:18:33.695Z,28.17
2022-12-08T07:19:35.496Z,29.22
2022-12-08T07:20:37.403Z,31.61
2022-12-08T07:21:39.204Z,31.38
2022-12-08T07:22:41.095Z,27.31
2022-12-08T07:23:42.986Z,32.51
2022-12-08T07:24:44.820Z,32.15
2022-12-08T07:25:46.643Z,36.86
2022-12-08T07:26:48.547Z,32.43
2022-12-08T07:27:50.385Z,31.54
2022-12-08T07:28:52.498Z,33.39
2022-12-08T07:29:54.307Z,32.79
2022-12-08T07:30:56.236Z,30.81
2022-12-08T07:31:58.030Z,34.11
2022-12-08T07:32:59.939Z,28.65
2022-12-08T07:34:01.757Z,31.08
2022-12-08T07:35:03.556Z,30.22
2022-12-08T07:36:05.470Z,28.30
2022-12-08T07:37:07.295Z,28.10
2022-12-08T07:38:09.295Z,27.59
2022-12-08T07:39:11.064Z,27.25
2022-12-08T07:40:12.982Z,24.33
2022-12-08T07:41:14.809Z,25.77
2022-12-08T07:42:16.634Z,26.51
2022-12-08T07:43:18.473Z,28.41
2022-12-08T07:44:20.269Z,25.67
2022-12-08T07:45:25.672Z,24.39
2022-12-08T07:46:25.847Z,23.78
2022-12-08T07:47:27.719Z,25.89
2022-12-08T07:48:29.561Z,25.16
2022-12-08T07:49:31.383Z,26.92
2022-12-08T07:50:33.293Z,28.39
2022-12-08T07:51:35.121Z,26.02
2022-12-08T07:52:36.972Z,25.21
2022-12-08T07:53:42.206Z,28.12
2022-12-08T07:54:42.524Z,27.62
2022-12-08T07:55:44.343Z,29.41
2022-12-08T07:56:46.419Z,25.51
2022-12-08T07:57:48.237Z,29.71
2022-12-08T07:58:50.086Z,32.80
2022-12-08T07:59:53.828Z,32.01
2022-12-08T08:00:55.751Z,29.97
2022-12-08T08:02:21.347Z,30.04
2022-12-08T08:03:01.314Z,35.65
2022-12-08T08:04:03.251Z,28.50
2022-12-08T08:05:05.088Z,31.59
2022-12-08T08:06:07.143Z,34.30
2022-12-08T08:07:08.961Z,28.64
2022-12-08T08:08:10.868Z,27.70
2022-12-08T08:09:12.777Z,28.19
2022-12-08T08:10:14.815Z,24.66
2022-12-08T08:11:20.816Z,25.99
2022-12-08T08:12:31.357Z,26.83
2022-12-08T08:13:23.845Z,23.36
2022-12-08T08:14:27.227Z,23.22
2022-12-08T08:15:29.134Z,27.01
2022-12-08T08:16:37.974Z,25.55
2022-12-08T08:17:34.962Z,29.84
2022-12-08T08:18:36.812Z,26.29
2022-12-08T08:19:38.654Z,26.53
2022-12-08T08:20:40.571Z,25.13
2022-12-08T08:21:46.459Z,24.94
2022-12-08T08:22:46.007Z,23.36
2022-12-08T08:23:47.846Z,26.67
2022-12-08T08:24:49.727Z,25.10
2022-12-08T08:25:51.545Z,24.58
2022-12-08T08:26:53.637Z,26.32
2022-12-08T08:27:55.450Z,24.74
2022-12-08T08:28:57.246Z,24.25
2022-12-08T08:29:59.069Z,24.28
2022-12-08T08:31:01.093Z,22.22
2022-12-08T08:32:02.912Z,25.71
2022-12-08T08:33:04.736Z,25.63
2022-12-08T08:34:06.788Z,23.69
2022-12-08T08:35:08.685Z,22.22
2022-12-08T08:36:10.701Z,30.20
2022-12-08T08:37:12.582Z,26.15
2022-12-08T08:38:14.434Z,22.84
2022-12-08T08:39:16.223Z,27.56
2022-12-08T08:40:18.172Z,24.31
2022-12-08T08:41:19.973Z,24.55
2022-12-08T08:42:21.799Z,25.54
2022-12-08T08:43:23.602Z,23.33
2022-12-08T08:44:25.407Z,23.96
2022-12-08T08:45:27.259Z,29.59
2022-12-08T08:46:29.259Z,27.55
2022-12-08T08:47:31.076Z,27.21
2022-12-08T08:48:32.889Z,26.51
2022-12-08T08:49:34.696Z,23.21
2022-12-08T08:50:37.811Z,21.95
2022-12-08T08:51:39.752Z,23.69
2022-12-08T08:52:41.567Z,24.49
2022-12-08T08:53:43.356Z,24.17
2022-12-08T08:54:45.176Z,26.32
2022-12-08T08:55:47.027Z,26.11
2022-12-08T08:56:48.944Z,25.83
2022-12-08T08:57:50.771Z,23.46
2022-12-08T08:58:52.595Z,26.11
2022-12-08T08:59:54.423Z,25.11
2022-12-08T09:00:56.403Z,21.59
2022-12-08T09:01:58.320Z,23.06
2022-12-08T09:03:00.085Z,21.13
2022-12-08T09:04:01.975Z,21.81
2022-12-08T09:05:03.919Z,21.62
2022-12-08T09:06:06.398Z,23.66
2022-12-08T09:07:08.225Z,23.51
2022-12-08T09:08:10.115Z,20.18
2022-12-08T09:09:11.969Z,24.94
2022-12-08T09:10:14.109Z,22.75
2022-12-08T09:11:16.152Z,22.62
2022-12-08T09:12:17.951Z,22.84
2022-12-08T09:13:19.755Z,23.31
2022-12-08T09:14:21.555Z,22.99
2022-12-08T09:15:23.342Z,25.41
2022-12-08T09:16:25.278Z,29.07
2022-12-08T09:17:27.114Z,33.70
2022-12-08T09:18:28.934Z,29.51
2022-12-08T09:19:30.834Z,27.36
2022-12-08T09:20:32.802Z,26.79
2022-12-08T09:21:34.594Z,25.91
2022-12-08T09:22:36.387Z,26.71
2022-12-08T09:23:38.109Z,29.35
2022-12-08T09:24:39.892Z,22.78
2022-12-08T09:25:41.706Z,25.20
2022-12-08T09:26:43.693Z,23.23
2022-12-08T09:27:45.486Z,23.95
2022-12-08T09:28:47.305Z,26.09
2022-12-08T09:29:49.117Z,25.67
2022-12-08T09:30:51.167Z,22.23
2022-12-08T09:31:53.057Z,23.61
2022-12-08T09:32:54.908Z,22.00
2022-12-08T09:33:56.740Z,21.48
2022-12-08T09:34:58.584Z,23.78
2022-12-08T09:36:00.397Z,23.05
2022-12-08T09:37:02.230Z,23.82
2022-12-08T09:38:04.054Z,22.53
2022-12-08T09:39:05.882Z,22.30
2022-12-08T09:40:08.079Z,23.09
2022-12-08T09:41:09.987Z,21.77
2022-12-08T09:42:12.039Z,21.29
2022-12-08T09:43:13.839Z,23.94
2022-12-08T09:44:15.648Z,25.50
2022-12-08T09:45:17.583Z,21.16
2022-12-08T09:46:19.542Z,24.50
2022-12-08T09:47:21.509Z,26.40
2022-12-08T09:48:23.389Z,25.68
2022-12-08T09:49:25.185Z,24.35
2022-12-08T09:50:27.197Z,23.88
2022-12-08T09:51:28.994Z,27.47
2022-12-08T09:52:30.821Z,27.96
2022-12-08T09:53:35.716Z,29.07
2022-12-08T09:54:36.393Z,26.73
2022-12-08T09:55:38.207Z,26.71
2022-12-08T09:56:40.259Z,31.07
2022-12-08T09:57:42.142Z,28.58
2022-12-08T09:58:43.954Z,30.78
2022-12-08T09:59:45.753Z,29.05
2022-12-08T10:00:47.680Z,35.86
2022-12-08T10:01:49.556Z,38.27
2022-12-08T10:02:51.418Z,32.17
2022-12-08T10:03:53.209Z,28.15
2022-12-08T10:04:55.093Z,29.11
2022-12-08T10:05:57.052Z,25.89
2022-12-08T10:06:59.167Z,28.88
2022-12-08T10:08:01.092Z,29.97
2022-12-08T10:09:02.943Z,26.00
2022-12-08T10:10:05.169Z,29.17
2022-12-08T10:11:07.254Z,31.18
2022-12-08T10:12:09.033Z,29.19
2022-12-08T10:13:10.916Z,28.85
2022-12-08T10:14:12.726Z,34.83
2022-12-08T10:15:14.537Z,41.11
2022-12-08T10:16:23.110Z,40.04
2022-12-08T10:17:20.165Z,40.41
2022-12-08T10:18:22.024Z,36.21
2022-12-08T10:19:23.855Z,30.71
2022-12-08T10:20:25.866Z,22.90
2022-12-08T10:21:27.708Z,24.99
2022-12-08T10:22:29.536Z,26.15
2022-12-08T10:23:31.338Z,26.63
2022-12-08T10:24:33.126Z,28.00
2022-12-08T10:25:34.952Z,26.35
2022-12-08T10:26:36.966Z,27.17
2022-12-08T10:27:38.793Z,27.13
2022-12-08T10:28:44.871Z,23.53
2022-12-08T10:29:44.325Z,23.86
2022-12-08T10:30:46.547Z,24.03
2022-12-08T10:31:48.445Z,24.79
2022-12-08T10:32:50.277Z,27.91
2022-12-08T10:33:52.166Z,28.07
2022-12-08T10:34:56.465Z,26.56
2022-12-08T10:35:57.584Z,27.26
2022-12-08T10:36:59.591Z,26.71
2022-12-08T10:38:01.390Z,25.41
2022-12-08T10:39:03.247Z,29.66
2022-12-08T10:40:05.735Z,26.74
2022-12-08T10:41:07.665Z,29.20
2022-12-08T10:42:09.484Z,20.23
2022-12-08T10:43:11.287Z,22.71
2022-12-08T10:44:13.196Z,24.23
2022-12-08T10:45:14.982Z,24.27
2022-12-08T10:46:16.937Z,22.09
2022-12-08T10:47:18.776Z,27.64
2022-12-08T10:48:20.614Z,25.71
2022-12-08T10:49:22.457Z,25.99
2022-12-08T10:50:24.273Z,25.69
2022-12-08T10:51:26.099Z,28.08
2022-12-08T10:52:27.908Z,24.55
2022-12-08T10:53:29.725Z,28.72
2022-12-08T10:54:31.598Z,25.44
2022-12-08T10:55:33.396Z,22.99
2022-12-08T10:56:35.324Z,24.48
2022-12-08T10:57:37.125Z,24.61
2022-12-08T10:58:38.918Z,24.94
2022-12-08T10:59:40.859Z,26.29
2022-12-08T11:00:43.229Z,23.31
2022-12-08T11:01:45.297Z,27.69
2022-12-08T11:02:47.390Z,27.36
2022-12-08T11:03:49.200Z,26.09
2022-12-08T11:04:51.338Z,24.18
2022-12-08T11:05:53.162Z,23.84
2022-12-08T11:06:55.260Z,25.20
2022-12-08T11:07:57.144Z,23.00
2022-12-08T11:08:58.902Z,23.45
2022-12-08T11:10:00.737Z,24.68
2022-12-08T11:11:02.539Z,28.70
2022-12-08T11:12:04.354Z,30.03
2022-12-08T11:13:06.161Z,25.35
2022-12-08T11:14:07.976Z,27.71
2022-12-08T11:15:09.884Z,24.74
2022-12-08T11:16:12.110Z,23.53
2022-12-08T11:17:14.027Z,27.11
2022-12-08T11:18:15.830Z,21.71
2022-12-08T11:19:17.642Z,26.75
2022-12-08T11:20:19.592Z,24.63
2022-12-08T11:21:21.394Z,23.45
2022-12-08T11:22:23.214Z,22.32
2022-12-08T11:23:25.017Z,22.55
2022-12-08T11:24:26.845Z,23.43
2022-12-08T11:25:28.675Z,21.10
2022-12-08T11:26:30.580Z,20.94
2022-12-08T11:27:32.385Z,22.49
2022-12-08T11:28:34.216Z,21.25
2022-12-08T11:29:36.035Z,19.86
2022-12-08T11:30:38.384Z,24.80
2022-12-08T11:31:40.234Z,25.00
2022-12-08T11:32:42.113Z,24.51
2022-12-08T11:33:43.911Z,22.99
2022-12-08T11:34:45.725Z,22.81
2022-12-08T11:35:47.605Z,25.05
2022-12-08T11:36:49.691Z,25.06
2022-12-08T11:37:51.508Z,21.91
2022-12-08T11:38:53.325Z,22.49
2022-12-08T11:39:55.178Z,21.65
2022-12-08T11:40:57.739Z,22.45
2022-12-08T11:41:59.560Z,21.10
2022-12-08T11:43:01.370Z,22.13
2022-12-08T11:44:03.224Z,24.31
2022-12-08T11:45:05.371Z,22.39
2022-12-08T11:46:08.170Z,23.21
2022-12-08T11:47:10.034Z,21.68
2022-12-08T11:48:11.851Z,24.32
2022-12-08T11:49:13.653Z,28.79
2022-12-08T11:50:18.312Z,27.50
2022-12-08T11:51:19.555Z,22.51
2022-12-08T11:52:21.371Z,24.02
2022-12-08T11:53:23.169Z,23.77
2022-12-08T11:54:24.976Z,24.55
2022-12-08T11:55:26.801Z,23.47
2022-12-08T11:56:28.752Z,21.91
2022-12-08T11:57:30.576Z,23.82
2022-12-08T11:58:32.377Z,22.28
2022-12-08T11:59:34.181Z,25.65
2022-12-08T12:00:36.395Z,22.42
2022-12-08T12:01:42.496Z,20.72
2022-12-08T12:02:41.926Z,23.68
2022-12-08T12:03:43.739Z,26.67
2022-12-08T12:04:45.606Z,20.69
2022-12-08T12:06:12.610Z,20.39
2022-12-08T12:06:55.340Z,22.45
2022-12-08T12:07:54.881Z,20.29
2022-12-08T12:08:56.731Z,23.00
2022-12-08T12:09:58.568Z,22.83
2022-12-08T12:11:00.511Z,20.65
2022-12-08T12:12:02.425Z,20.94
2022-12-08T12:13:04.239Z,26.05
2022-12-08T12:14:06.057Z,23.14
2022-12-08T12:15:07.879Z,23.96
2022-12-08T12:16:09.815Z,25.93
2022-12-08T12:17:11.953Z,23.44
2022-12-08T12:18:16.918Z,26.39
2022-12-08T12:19:17.460Z,24.06
2022-12-08T12:20:21.870Z,27.25
2022-12-08T12:21:23.709Z,27.80
2022-12-08T12:22:25.562Z,28.54
2022-12-08T12:23:27.375Z,24.84
2022-12-08T12:24:34.224Z,23.75
2022-12-08T12:25:32.944Z,23.32
2022-12-08T12:26:35.123Z,23.71
2022-12-08T12:27:36.972Z,20.42
2022-12-08T12:28:38.778Z,21.40
2022-12-08T12:29:40.582Z,21.55
2022-12-08T12:30:42.838Z,19.99
2022-12-08T12:31:44.641Z,23.45
2022-12-08T12:32:46.565Z,25.73
2022-12-08T12:33:48.476Z,22.21
2022-12-08T12:34:50.434Z,21.44
2022-12-08T12:35:53.983Z,20.84
2022-12-08T12:36:56.374Z,20.96
2022-12-08T12:37:58.197Z,21.66
2022-12-08T12:39:00.021Z,20.71
2022-12-08T12:40:02.094Z,20.82
2022-12-08T12:41:03.952Z,27.87
2022-12-08T12:42:05.796Z,32.92
2022-12-08T12:43:07.650Z,31.05
2022-12-08T12:44:09.455Z,29.59
2022-12-08T12:45:11.276Z,33.98
2022-12-08T12:46:13.267Z,28.89
2022-12-08T12:47:15.142Z,37.39
2022-12-08T12:48:17.102Z,33.75
2022-12-08T12:49:18.939Z,29.04
2022-12-08T12:50:21.837Z,26.73
2022-12-08T12:51:23.665Z,24.73
2022-12-08T12:52:25.457Z,21.47
2022-12-08T12:53:27.296Z,21.97
2022-12-08T12:54:29.085Z,27.31
2022-12-08T12:55:30.895Z,34.63
2022-12-08T12:56:32.706Z,33.05
2022-12-08T12:57:34.535Z,29.71
2022-12-08T12:58:36.406Z,28.35
2022-12-08T12:59:38.217Z,25.92
2022-12-08T13:00:40.128Z,23.45
2022-12-08T13:01:41.970Z,22.57
2022-12-08T13:02:43.863Z,23.25
2022-12-08T13:03:45.846Z,27.04
2022-12-08T13:04:47.654Z,24.87
2022-12-08T13:05:49.472Z,24.45
2022-12-08T13:06:51.373Z,27.45
2022-12-08T13:07:53.253Z,24.45
2022-12-08T13:08:55.146Z,22.93
2022-12-08T13:09:56.973Z,21.74
2022-12-08T13:10:59.208Z,21.11
2022-12-08T13:12:01.023Z,22.19
2022-12-08T13:13:02.821Z,21.44
2022-12-08T13:14:04.690Z,20.46
2022-12-08T13:15:06.477Z,21.99
2022-12-08T13:16:18.521Z,25.64
2022-12-08T13:17:12.289Z,19.16
2022-12-08T13:18:14.189Z,22.85
2022-12-08T13:19:16.450Z,22.08